createdAt,value
2018-11-06T00:01:13.914Z,82.75
2018-11-06T00:03:54.434Z,82.53
2018-11-06T00:06:31.776Z,82.35
2018-11-06T00:09:09.245Z,82.68
2018-11-06T00:11:47.078Z,82.53
2018-11-06T00:14:26.214Z,82.83
2018-11-06T00:17:01.587Z,82.67
2018-11-06T00:19:38.860Z,82.80
2018-11-06T00:22:16.614Z,82.74
2018-11-06T00:24:54.173Z,82.61
2018-11-06T00:27:31.732Z,82.82
2018-11-06T00:30:09.407Z,82.77
2018-11-06T00:32:46.936Z,82.67
2018-11-06T00:35:24.654Z,82.67
2018-11-06T00:38:01.932Z,82.33
2018-11-06T00:40:39.117Z,82.76
2018-11-06T00:43:16.595Z,82.47
2018-11-06T00:45:53.423Z,82.48
2018-11-06T00:48:31.113Z,82.51
2018-11-06T00:51:08.431Z,82.82
2018-11-06T00:53:50.055Z,83.23
2018-11-06T00:56:27.950Z,82.73
2018-11-06T00:59:04.880Z,82.59
2018-11-06T01:01:55.461Z,82.90
2018-11-06T01:04:38.193Z,82.79
2018-11-06T01:07:22.533Z,82.77
2018-11-06T01:10:00.475Z,83.03
2018-11-06T01:12:37.705Z,82.92
2018-11-06T01:15:16.918Z,83.12
2018-11-06T01:17:54.249Z,82.79
2018-11-06T01:20:31.299Z,82.66
2018-11-06T01:23:10.370Z,82.87
2018-11-06T01:25:47.170Z,82.90
2018-11-06T01:28:26.359Z,82.79
2018-11-06T01:31:04.054Z,82.73
2018-11-06T01:33:33.501Z,82.57
2018-11-06T01:36:03.372Z,82.54
2018-11-06T01:38:32.967Z,82.62
2018-11-06T01:41:02.491Z,83.26
2018-11-06T01:43:32.135Z,82.76
2018-11-06T01:46:01.546Z,82.78
2018-11-06T01:48:30.969Z,83.08
2018-11-06T01:51:01.760Z,82.90
2018-11-06T01:53:31.199Z,83.12
2018-11-06T01:56:00.809Z,82.86
2018-11-06T01:58:30.286Z,82.82
2018-11-06T02:00:59.937Z,82.71
2018-11-06T02:03:29.576Z,83.17
2018-11-06T02:05:59.284Z,82.95
2018-11-06T02:08:32.759Z,82.70
2018-11-06T02:11:02.194Z,83.27
2018-11-06T02:13:32.146Z,83.01
2018-11-06T02:16:01.831Z,83.23
2018-11-06T02:18:31.579Z,83.06
2018-11-06T02:21:01.139Z,83.40
2018-11-06T02:23:30.558Z,82.81
2018-11-06T02:26:00.051Z,82.63
2018-11-06T02:28:29.472Z,82.98
2018-11-06T02:30:58.870Z,83.22
2018-11-06T02:33:28.868Z,83.19
2018-11-06T02:35:58.243Z,82.90
2018-11-06T02:38:27.650Z,83.17
2018-11-06T02:40:57.084Z,83.32
2018-11-06T02:43:26.518Z,83.03
2018-11-06T02:45:56.368Z,83.21
2018-11-06T02:48:26.663Z,82.90
2018-11-06T02:50:56.297Z,83.39
2018-11-06T02:53:25.758Z,83.42
2018-11-06T02:55:55.260Z,83.33
2018-11-06T02:58:24.639Z,83.24
2018-11-06T03:00:54.137Z,83.51
2018-11-06T03:03:25.388Z,83.52
2018-11-06T03:05:54.857Z,83.09
2018-11-06T03:08:24.716Z,83.38
2018-11-06T03:10:54.138Z,83.80
2018-11-06T03:13:23.707Z,83.41
2018-11-06T03:15:53.089Z,83.04
2018-11-06T03:18:22.901Z,83.30
2018-11-06T03:20:52.367Z,83.76
2018-11-06T03:23:21.758Z,83.48
2018-11-06T03:25:51.258Z,83.48
2018-11-06T03:28:20.654Z,83.40
2018-11-06T03:30:50.292Z,83.40
2018-11-06T03:33:20.582Z,83.37
2018-11-06T03:35:50.100Z,83.77
2018-11-06T03:38:19.521Z,83.30
2018-11-06T03:40:49.170Z,83.53
2018-11-06T03:43:18.612Z,83.28
2018-11-06T03:45:48.777Z,83.44
2018-11-06T03:48:18.146Z,83.60
2018-11-06T03:50:47.623Z,83.33
2018-11-06T03:53:17.037Z,83.80
2018-11-06T03:55:46.722Z,83.52
2018-11-06T03:58:16.404Z,83.68
2018-11-06T04:00:46.074Z,83.40
2018-11-06T04:03:15.576Z,83.90
2018-11-06T04:05:45.238Z,83.82
2018-11-06T04:08:14.636Z,83.65
2018-11-06T04:10:43.998Z,83.97
2018-11-06T04:13:13.388Z,83.67
2018-11-06T04:15:46.351Z,83.75
2018-11-06T04:18:15.795Z,83.64
2018-11-06T04:20:45.408Z,83.96
2018-11-06T04:23:14.999Z,83.55
2018-11-06T04:25:44.483Z,83.84
2018-11-06T04:28:14.134Z,84.00
2018-11-06T04:30:43.569Z,83.70
2018-11-06T04:33:13.017Z,84.05
2018-11-06T04:35:42.644Z,83.71
2018-11-06T04:38:12.041Z,84.01
2018-11-06T04:40:41.476Z,83.84
2018-11-06T04:43:10.917Z,84.16
2018-11-06T04:45:40.676Z,83.80
2018-11-06T04:48:10.302Z,83.86
2018-11-06T04:50:39.754Z,84.15
2018-11-06T04:53:09.203Z,83.63
2018-11-06T04:55:38.636Z,84.22
2018-11-06T04:58:08.053Z,83.71
2018-11-06T05:00:37.556Z,84.34
2018-11-06T05:03:07.090Z,83.92
2018-11-06T05:05:36.720Z,83.73
2018-11-06T05:08:06.367Z,83.71
2018-11-06T05:10:35.980Z,83.71
2018-11-06T05:13:06.540Z,83.93
2018-11-06T05:15:36.120Z,84.00
2018-11-06T05:18:06.615Z,83.96
2018-11-06T05:20:36.101Z,83.99
2018-11-06T05:23:06.502Z,84.04
2018-11-06T05:25:35.945Z,83.95
2018-11-06T05:28:06.227Z,84.12
2018-11-06T05:30:35.681Z,83.69
2018-11-06T05:33:06.641Z,83.87
2018-11-06T05:35:36.295Z,83.89
2018-11-06T05:38:06.508Z,83.97
2018-11-06T05:41:02.092Z,83.60
2018-11-06T05:43:31.511Z,83.18
2018-11-06T05:46:01.273Z,83.75
2018-11-06T05:48:31.057Z,83.76
2018-11-06T05:51:00.685Z,83.71
2018-11-06T05:53:30.814Z,84.05
2018-11-06T05:56:00.258Z,83.68
2018-11-06T05:58:29.777Z,83.62
2018-11-06T06:00:59.199Z,83.68
2018-11-06T06:03:29.056Z,83.73
2018-11-06T06:06:00.515Z,83.99
2018-11-06T06:08:29.929Z,84.09
2018-11-06T06:10:59.423Z,84.18
2018-11-06T06:13:28.824Z,84.18
2018-11-06T06:15:58.336Z,84.09
2018-11-06T06:18:27.835Z,84.51
2018-11-06T06:20:57.754Z,84.32
2018-11-06T06:23:27.207Z,84.35
2018-11-06T06:25:56.682Z,84.43
2018-11-06T06:28:26.400Z,84.46
2018-11-06T06:31:04.197Z,84.57
2018-11-06T06:33:37.716Z,84.39
2018-11-06T06:36:11.343Z,84.47
2018-11-06T06:38:40.922Z,84.63
2018-11-06T06:41:10.412Z,84.39
2018-11-06T06:43:39.858Z,84.56
2018-11-06T06:46:09.357Z,84.90
2018-11-06T06:48:39.070Z,84.87
2018-11-06T06:51:08.789Z,84.89
2018-11-06T06:53:39.690Z,84.85
2018-11-06T06:56:09.191Z,84.81
2018-11-06T06:58:38.676Z,84.88
2018-11-06T07:01:08.273Z,84.77
2018-11-06T07:03:37.794Z,85.26
2018-11-06T07:06:07.459Z,85.04
2018-11-06T07:08:37.211Z,85.17
2018-11-06T07:11:06.620Z,85.37
2018-11-06T07:13:36.572Z,85.30
2018-11-06T07:16:07.480Z,85.14
2018-11-06T07:18:37.259Z,85.12
2018-11-06T07:21:09.653Z,85.33
2018-11-06T07:23:39.222Z,85.36
2018-11-06T07:26:08.767Z,85.30
2018-11-06T07:28:38.395Z,85.43
2018-11-06T07:31:08.555Z,85.27
2018-11-06T07:33:43.581Z,85.27
2018-11-06T07:36:12.990Z,85.29
2018-11-06T07:38:42.420Z,85.52
2018-11-06T07:41:11.978Z,85.42
2018-11-06T07:43:42.385Z,85.36
2018-11-06T07:46:12.027Z,85.17
2018-11-06T07:48:41.415Z,85.15
2018-11-06T07:51:12.139Z,85.13
2018-11-06T07:53:41.615Z,85.38
2018-11-06T07:56:11.322Z,85.29
2018-11-06T07:58:41.690Z,85.13
2018-11-06T08:01:11.591Z,85.29
2018-11-06T08:03:41.240Z,84.66
2018-11-06T08:06:11.204Z,84.63
2018-11-06T08:08:41.463Z,84.90
2018-11-06T08:11:11.683Z,84.64
2018-11-06T08:13:46.659Z,84.64
2018-11-06T08:16:16.497Z,84.59
2018-11-06T08:18:45.968Z,84.74
2018-11-06T08:21:19.640Z,84.41
2018-11-06T08:23:49.320Z,84.71
2018-11-06T08:26:18.780Z,84.46
2018-11-06T08:28:48.344Z,84.52
2018-11-06T08:31:18.038Z,84.03
2018-11-06T08:33:51.656Z,84.01
2018-11-06T08:36:21.363Z,84.29
2018-11-06T08:38:51.002Z,84.05
2018-11-06T08:41:20.452Z,84.05
2018-11-06T08:43:49.900Z,84.05
2018-11-06T08:46:19.675Z,83.93
2018-11-06T08:48:49.160Z,84.00
2018-11-06T08:51:18.671Z,83.88
2018-11-06T08:53:48.507Z,83.67
2018-11-06T08:56:18.030Z,83.76
2018-11-06T08:58:49.197Z,83.32
2018-11-06T09:01:21.116Z,83.33
2018-11-06T09:03:50.854Z,83.43
2018-11-06T09:06:20.765Z,82.99
2018-11-06T09:08:51.092Z,82.83
2018-11-06T09:11:20.741Z,82.25
2018-11-06T09:13:51.355Z,82.44
2018-11-06T09:16:21.039Z,82.36
2018-11-06T09:18:50.501Z,82.42
2018-11-06T09:21:19.961Z,82.55
2018-11-06T09:23:50.432Z,82.37
2018-11-06T09:26:23.848Z,82.76
2018-11-06T09:28:53.556Z,82.81
2018-11-06T09:31:23.400Z,82.85
2018-11-06T09:33:52.811Z,82.12
2018-11-06T09:36:22.943Z,82.85
2018-11-06T09:38:52.487Z,82.47
2018-11-06T09:41:21.955Z,82.48
2018-11-06T09:43:51.347Z,82.49
2018-11-06T09:46:20.773Z,82.16
2018-11-06T09:48:50.234Z,82.35
2018-11-06T09:51:19.623Z,82.38
2018-11-06T09:53:49.158Z,82.76
2018-11-06T09:56:18.602Z,82.23
2018-11-06T09:58:48.258Z,82.26
2018-11-06T10:01:17.710Z,82.15
2018-11-06T10:03:47.068Z,81.46
2018-11-06T10:06:16.621Z,81.60
2018-11-06T10:08:45.969Z,80.67
2018-11-06T10:11:15.463Z,80.60
2018-11-06T10:13:45.141Z,80.56
2018-11-06T10:16:15.676Z,80.55
2018-11-06T10:18:45.164Z,80.12
2018-11-06T10:21:14.644Z,80.79
2018-11-06T10:23:44.277Z,80.00
2018-11-06T10:26:13.900Z,80.35
2018-11-06T10:28:43.263Z,79.76
2018-11-06T10:31:12.720Z,79.71
2018-11-06T10:33:42.164Z,79.46
2018-11-06T10:36:11.669Z,79.23
2018-11-06T10:38:41.124Z,79.68
2018-11-06T10:41:10.567Z,79.12
2018-11-06T10:43:40.062Z,78.94
2018-11-06T10:46:10.246Z,79.01
2018-11-06T10:48:39.683Z,79.02
2018-11-06T10:51:09.234Z,77.80
2018-11-06T10:53:38.622Z,77.53
2018-11-06T10:56:08.382Z,77.47
2018-11-06T10:58:37.797Z,77.55
2018-11-06T11:01:12.606Z,76.89
2018-11-06T11:03:47.312Z,76.31
2018-11-06T11:06:16.682Z,76.43
2018-11-06T11:08:50.674Z,76.26
2018-11-06T11:11:20.102Z,75.07
2018-11-06T11:13:49.766Z,75.41
2018-11-06T11:16:19.240Z,75.11
2018-11-06T11:18:48.634Z,74.16
2018-11-06T11:21:18.148Z,74.62
2018-11-06T11:23:47.562Z,73.43
2018-11-06T11:26:17.088Z,73.16
2018-11-06T11:28:46.514Z,73.70
2018-11-06T11:31:16.218Z,72.46
2018-11-06T11:33:45.807Z,72.07
2018-11-06T11:36:15.255Z,72.05
2018-11-06T11:38:44.853Z,71.54
2018-11-06T11:41:14.247Z,71.68
2018-11-06T11:43:43.656Z,71.17
2018-11-06T11:46:13.167Z,71.22
2018-11-06T11:48:42.695Z,71.51
2018-11-06T11:51:12.372Z,70.79
2018-11-06T11:53:41.780Z,70.38
2018-11-06T11:56:11.454Z,70.73
2018-11-06T11:58:43.249Z,70.38
2018-11-06T12:01:14.964Z,69.89
2018-11-06T12:03:44.410Z,70.04
2018-11-06T12:06:13.894Z,69.83
2018-11-06T12:08:43.292Z,69.71
2018-11-06T12:11:12.754Z,68.86
2018-11-06T12:13:42.250Z,68.50
2018-11-06T12:16:11.704Z,68.51
2018-11-06T12:18:41.663Z,67.67
2018-11-06T12:21:11.221Z,67.30
2018-11-06T12:23:40.609Z,66.98
2018-11-06T12:26:10.059Z,66.52
2018-11-06T12:28:39.720Z,66.14
2018-11-06T12:31:09.174Z,66.57
2018-11-06T12:33:38.690Z,66.10
2018-11-06T12:36:08.156Z,65.66
2018-11-06T12:38:37.702Z,65.14
2018-11-06T12:41:07.458Z,65.59
2018-11-06T12:43:37.077Z,65.97
2018-11-06T12:46:06.856Z,64.69
2018-11-06T12:48:36.397Z,64.57
2018-11-06T12:51:06.794Z,62.86
2018-11-06T12:53:36.858Z,62.12
2018-11-06T12:56:06.626Z,60.78
2018-11-06T12:58:36.066Z,60.26
2018-11-06T13:01:06.620Z,59.71
2018-11-06T13:03:36.149Z,60.21
2018-11-06T13:06:06.694Z,59.50
2018-11-06T13:08:36.200Z,59.40
2018-11-06T13:11:06.563Z,59.46
2018-11-06T13:13:36.121Z,60.02
2018-11-06T13:16:06.270Z,60.48
2018-11-06T13:18:35.681Z,60.13
2018-11-06T13:21:06.236Z,60.44
2018-11-06T13:23:35.652Z,61.18
2018-11-06T13:26:06.487Z,61.77
2018-11-06T13:28:36.024Z,61.51
2018-11-06T13:31:06.706Z,61.26
2018-11-06T13:33:36.099Z,61.68
2018-11-06T13:36:07.202Z,62.30
2018-11-06T13:38:36.744Z,62.24
2018-11-06T13:41:06.572Z,61.95
2018-11-06T13:43:36.149Z,62.34
2018-11-06T13:46:06.504Z,62.86
2018-11-06T13:48:35.938Z,62.58
2018-11-06T13:51:06.917Z,63.32
2018-11-06T13:53:36.425Z,62.31
2018-11-06T13:56:06.989Z,63.41
2018-11-06T13:58:36.622Z,63.29
2018-11-06T14:01:07.020Z,62.31
2018-11-06T14:03:37.435Z,62.57
2018-11-06T14:06:07.102Z,63.33
2018-11-06T14:08:37.266Z,63.58
2018-11-06T14:11:07.924Z,62.97
2018-11-06T14:13:37.305Z,63.61
2018-11-06T14:16:08.482Z,63.21
2018-11-06T14:18:38.023Z,63.63
2018-11-06T14:21:07.689Z,64.43
2018-11-06T14:23:37.321Z,64.36
2018-11-06T14:26:07.105Z,64.64
2018-11-06T14:28:36.686Z,64.90
2018-11-06T14:31:06.441Z,64.76
2018-11-06T14:33:35.883Z,64.52
2018-11-06T14:36:07.211Z,65.29
2018-11-06T14:38:37.372Z,65.49
2018-11-06T14:41:06.832Z,65.18
2018-11-06T14:43:37.023Z,65.63
2018-11-06T14:46:06.780Z,65.91
2018-11-06T14:48:36.278Z,66.00
2018-11-06T14:51:06.304Z,66.30
2018-11-06T14:53:35.828Z,65.74
2018-11-06T14:56:06.760Z,66.69
2018-11-06T14:58:36.464Z,66.17
2018-11-06T15:01:07.623Z,66.55
2018-11-06T15:03:37.177Z,66.59
2018-11-06T15:06:06.873Z,67.54
2018-11-06T15:08:36.314Z,67.08
2018-11-06T15:11:06.539Z,67.95
2018-11-06T15:13:36.284Z,67.69
2018-11-06T15:16:06.458Z,68.51
2018-11-06T15:18:35.988Z,67.99
2018-11-06T15:21:07.025Z,68.49
2018-11-06T15:23:36.390Z,68.46
2018-11-06T15:26:07.101Z,68.81
2018-11-06T15:28:38.636Z,68.74
2018-11-06T15:31:09.002Z,69.15
2018-11-06T15:33:38.761Z,69.30
2018-11-06T15:36:08.442Z,69.15
2018-11-06T15:38:38.172Z,69.41
2018-11-06T15:41:08.160Z,70.08
2018-11-06T15:43:38.355Z,70.05
2018-11-06T15:46:08.554Z,69.81
2018-11-06T15:48:38.181Z,70.65
2018-11-06T15:51:07.492Z,70.58
2018-11-06T15:53:36.911Z,70.94
2018-11-06T15:56:07.324Z,70.23
2018-11-06T15:58:36.853Z,70.44
2018-11-06T16:01:06.524Z,70.64
2018-11-06T16:03:35.920Z,70.90
2018-11-06T16:06:06.693Z,70.87
2018-11-06T16:08:36.262Z,71.64
2018-11-06T16:11:06.747Z,71.59
2018-11-06T16:13:37.464Z,71.62
2018-11-06T16:16:07.551Z,71.93
2018-11-06T16:18:37.286Z,72.51
2018-11-06T16:21:06.882Z,72.22
2018-11-06T16:23:36.179Z,73.06
2018-11-06T16:26:07.773Z,72.62
2018-11-06T16:28:37.663Z,73.21
2018-11-06T16:31:07.887Z,73.96
2018-11-06T16:33:37.325Z,73.65
2018-11-06T16:36:06.976Z,73.78
2018-11-06T16:38:36.447Z,74.17
2018-11-06T16:41:07.480Z,74.29
2018-11-06T16:43:37.102Z,74.31
2018-11-06T16:46:07.902Z,74.63
2018-11-06T16:48:37.435Z,74.89
2018-11-06T16:51:07.769Z,75.37
2018-11-06T16:53:37.264Z,75.48
2018-11-06T16:56:07.324Z,75.38
2018-11-06T16:58:36.833Z,75.72
2018-11-06T17:01:06.713Z,75.61
2018-11-06T17:03:36.010Z,75.82
2018-11-06T17:06:10.936Z,75.84
2018-11-06T17:08:40.482Z,75.72
2018-11-06T17:11:09.892Z,75.49
2018-11-06T17:13:40.016Z,76.09
2018-11-06T17:16:09.442Z,75.74
2018-11-06T17:18:38.943Z,76.27
2018-11-06T17:21:08.780Z,75.89
2018-11-06T17:23:38.374Z,76.45
2018-11-06T17:26:07.832Z,76.22
2018-11-06T17:28:37.495Z,76.21
2018-11-06T17:31:07.153Z,76.61
2018-11-06T17:33:36.836Z,76.38
2018-11-06T17:36:07.450Z,77.30
2018-11-06T17:41:12.410Z,76.56
2018-11-06T17:43:41.887Z,76.79
2018-11-06T17:46:11.343Z,76.95
2018-11-06T17:48:40.884Z,76.70
2018-11-06T17:51:10.363Z,77.10
2018-11-06T17:53:40.129Z,76.99
2018-11-06T17:56:10.366Z,77.16
2018-11-06T17:58:39.749Z,77.21
2018-11-06T18:01:09.216Z,77.60
2018-11-06T18:03:38.672Z,77.48
2018-11-06T18:06:08.466Z,77.88
2018-11-06T18:08:38.237Z,77.45
2018-11-06T18:11:07.785Z,77.50
2018-11-06T18:13:37.315Z,77.41
2018-11-06T18:16:07.131Z,77.67
2018-11-06T18:18:36.677Z,77.77
2018-11-06T18:21:06.552Z,77.71
2018-11-06T18:23:36.130Z,77.98
2018-11-06T18:26:06.228Z,78.00
2018-11-06T18:28:35.903Z,78.46
2018-11-06T18:31:06.221Z,78.60
2018-11-06T18:33:35.707Z,78.43
2018-11-06T18:36:06.402Z,78.96
2018-11-06T18:38:36.194Z,78.44
2018-11-06T18:41:06.618Z,78.83
2018-11-06T18:43:36.006Z,78.79
2018-11-06T18:46:06.651Z,78.68
2018-11-06T18:48:36.519Z,79.14
2018-11-06T18:51:06.337Z,79.06
2018-11-06T18:53:36.173Z,79.57
2018-11-06T18:56:06.527Z,79.29
2018-11-06T18:58:36.054Z,79.60
2018-11-06T19:01:07.048Z,79.30
2018-11-06T19:03:36.477Z,79.17
2018-11-06T19:06:06.430Z,79.34
2018-11-06T19:08:35.944Z,80.00
2018-11-06T19:11:06.654Z,79.56
2018-11-06T19:13:36.163Z,80.18
2018-11-06T19:16:06.347Z,80.00
2018-11-06T19:18:35.805Z,80.10
2018-11-06T19:21:09.712Z,80.04
2018-11-06T19:23:39.263Z,79.97
2018-11-06T19:26:09.130Z,80.14
2018-11-06T19:28:38.709Z,80.16
2018-11-06T19:31:08.164Z,80.67
2018-11-06T19:33:37.706Z,80.36
2018-11-06T19:36:07.201Z,80.58
2018-11-06T19:38:36.960Z,80.24
2018-11-06T19:41:07.123Z,80.47
2018-11-06T19:43:36.699Z,80.42
2018-11-06T19:46:06.666Z,80.53
2018-11-06T19:48:36.179Z,80.69
2018-11-06T19:51:06.502Z,80.80
2018-11-06T19:53:37.487Z,81.17
2018-11-06T19:56:06.959Z,80.79
2018-11-06T19:58:36.411Z,80.85
2018-11-06T20:01:06.367Z,81.29
2018-11-06T20:03:36.324Z,81.06
2018-11-06T20:06:06.761Z,80.60
2018-11-06T20:08:36.249Z,80.86
2018-11-06T20:11:06.806Z,80.96
2018-11-06T20:13:36.324Z,80.99
2018-11-06T20:16:06.326Z,81.19
2018-11-06T20:18:35.975Z,81.29
2018-11-06T20:21:07.018Z,81.39
2018-11-06T20:23:36.526Z,81.71
2018-11-06T20:26:07.935Z,81.66
2018-11-06T20:28:37.642Z,81.29
2018-11-06T20:31:07.279Z,81.04
2018-11-06T20:33:36.811Z,81.91
2018-11-06T20:36:06.636Z,81.97
2018-11-06T20:38:36.085Z,81.70
2018-11-06T20:41:06.242Z,81.72
2018-11-06T20:43:35.635Z,81.69
2018-11-06T20:46:06.693Z,82.15
2018-11-06T20:48:36.186Z,82.29
2018-11-06T20:51:06.623Z,81.94
2018-11-06T20:53:36.095Z,81.94
2018-11-06T20:56:07.276Z,82.38
2018-11-06T20:58:37.295Z,82.42
2018-11-06T21:01:07.703Z,82.47
2018-11-06T21:03:37.173Z,82.83
2018-11-06T21:06:06.917Z,82.91
2018-11-06T21:08:36.555Z,82.62
2018-11-06T21:11:06.607Z,82.57
2018-11-06T21:13:36.135Z,82.22
2018-11-06T21:16:07.168Z,82.47
2018-11-06T21:18:36.651Z,82.29
2018-11-06T21:21:06.573Z,82.75
2018-11-06T21:23:35.980Z,82.45
2018-11-06T21:26:06.672Z,82.59
2018-11-06T21:28:36.175Z,82.65
2018-11-06T21:31:07.858Z,82.49
2018-11-06T21:33:37.413Z,82.42
2018-11-06T21:36:06.832Z,82.61
2018-11-06T21:38:36.406Z,82.37
2018-11-06T21:41:06.463Z,82.25
2018-11-06T21:43:35.998Z,82.60
2018-11-06T21:46:05.555Z,82.72
2018-11-06T21:48:35.072Z,82.84
2018-11-06T21:51:04.514Z,82.69
2018-11-06T21:53:33.995Z,83.02
2018-11-06T21:56:03.863Z,83.35
2018-11-06T21:58:35.434Z,83.32
2018-11-06T22:01:05.395Z,83.29
2018-11-06T22:03:35.767Z,83.22
2018-11-06T22:06:05.311Z,83.22
2018-11-06T22:08:34.971Z,83.12
2018-11-06T22:11:04.940Z,83.04
2018-11-06T22:13:35.091Z,83.00
2018-11-06T22:16:10.448Z,83.11
2018-11-06T22:18:41.342Z,83.24
2018-11-06T22:21:11.715Z,83.11
2018-11-06T22:23:42.867Z,83.16
2018-11-06T22:26:13.180Z,83.36
2018-11-06T22:28:42.721Z,83.13
2018-11-06T22:31:12.400Z,82.99
2018-11-06T22:33:43.500Z,83.22
2018-11-06T22:36:14.072Z,83.16
2018-11-06T22:38:43.927Z,83.21
2018-11-06T22:41:14.394Z,83.35
2018-11-06T22:43:43.948Z,83.38
2018-11-06T22:46:13.514Z,83.62
2018-11-06T22:48:42.953Z,83.39
2018-11-06T22:51:12.496Z,83.50
2018-11-06T22:53:42.064Z,83.01
2018-11-06T22:56:11.688Z,83.57
2018-11-06T22:58:41.215Z,83.07
2018-11-06T23:01:17.748Z,83.63
2018-11-06T23:03:47.592Z,83.34
2018-11-06T23:06:17.392Z,83.31
2018-11-06T23:08:46.606Z,83.54
2018-11-06T23:11:16.088Z,83.39
2018-11-06T23:13:45.701Z,83.48
2018-11-06T23:16:15.486Z,83.25
2018-11-06T23:18:45.059Z,83.54
2018-11-06T23:21:14.970Z,83.96
2018-11-06T23:23:44.637Z,83.50
2018-11-06T23:26:15.367Z,83.85
2018-11-06T23:28:45.085Z,84.07
2018-11-06T23:31:14.540Z,83.93
2018-11-06T23:33:44.543Z,83.84
2018-11-06T23:36:14.112Z,83.74
2018-11-06T23:38:43.658Z,84.44
2018-11-06T23:41:13.113Z,84.33
2018-11-06T23:43:42.543Z,84.29
2018-11-06T23:46:12.133Z,84.30
2018-11-06T23:48:41.953Z,84.14
2018-11-06T23:51:11.427Z,84.61
2018-11-06T23:53:41.866Z,84.38
2018-11-06T23:56:11.321Z,84.81
2018-11-06T23:58:40.941Z,84.60
